Nearby METAR Reports

 

KDVT - Phoenix/Deer Vly, Arizona, USA
Distance from station: SW 14mi, 22km
Updated: Wed, 30-Sep-2020 12:53pm MST
Clear
Clear
 Wind from SSW
Wind: SSW 6 mph , 9 km/h
Temperature: 97°F , 36°C
Dew Point: 36°F , 2°C
Humidity: 12%
Barometer: 29.97 inHg , 1014.9 hPa
Clouds: Clear
Visibility: 10 miles , 16 km
2020/09/30 19:53 KDVT 301953Z 21005KT 10SM CLR 36/02 A2997 RMK AO2 SLP123 T03610017
KSDL - Scottsdale, Arizona, USA
Distance from station: S 15mi, 23km
Updated: Wed, 30-Sep-2020 12:53pm MST
Clear
Clear
 Wind from varies
Wind: varies 5 mph , 7 km/h
Temperature: 99°F , 37°C
Dew Point: 36°F , 2°C
Humidity: 11%
Barometer: 29.98 inHg , 1015.2 hPa
Clouds: Clear
Visibility: 10 miles , 16 km
2020/09/30 19:53 KSDL 301953Z VRB04KT 10SM CLR 37/02 A2998 RMK AO2 SLP123 T03720017
KFFZ - Mesa/Falcon Fld, Arizona, USA
Distance from station: SSE 27mi, 44km
Updated: Wed, 30-Sep-2020 12:54pm MST
Clear
Clear
 Wind from W
Wind: W 6 mph , 9 km/h
Temperature: 99°F , 37°C
Dew Point: 34°F , 1°C
Humidity: 10%
Barometer: 29.96 inHg , 1014.6 hPa
Clouds: Clear
Visibility: 10 miles , 16 km
2020/09/30 19:54 KFFZ 301954Z 26005KT 10SM CLR 37/01 A2996 RMK AO2 SLP119 T03670006
 
KPHX - Phoenix/Sky Hrbr, Arizona, USA
Distance from station: SSW 28mi, 45km
Updated: Wed, 30-Sep-2020 12:51pm MST
Clear
Clear
 Wind from calm
Wind: Calm
Temperature: 100°F , 38°C
Dew Point: 34°F , 1°C
Humidity: 10%
Barometer: 29.94 inHg , 1013.9 hPa
Clouds: Clear
Visibility: 10 miles , 16 km
2020/09/30 19:51 KPHX 301951Z 00000KT 10SM CLR 38/01 A2994 RMK AO2 SLP116 T03780011
KGEU - Glendale, Arizona, USA
Distance from station: SW 31mi, 49km
Updated: Wed, 30-Sep-2020 1:47pm MST
Clear
Clear
 Wind from SSE
Wind: SSE 7 mph , 11 km/h
Temperature: 100°F , 38°C
Dew Point: 32°F , 0°C
Humidity: 9%
Barometer: 29.93 inHg , 1013.5 hPa
Clouds: Clear
Visibility: 10 miles , 16 km
2020/09/30 20:47 KGEU 302047Z 15006KT 10SM SKC 38/00 A2993
KLUF - Luke Afb/Glendal, Arizona, USA
Distance from station: SW 34mi, 55km
Updated: Wed, 30-Sep-2020 12:56pm MST
Clear
Clear
 Wind from calm
Wind: Calm
Temperature: 99°F , 37°C
Dew Point: 32°F , 0°C
Humidity: 10%
Barometer: 29.93 inHg , 1013.5 hPa
Clouds: Clear
Visibility: 10 miles , 16 km
2020/09/30 19:56 KLUF 301956Z AUTO 00000KT 10SM CLR 37/00 A2993 RMK AO2 SLP121 T03680002 $
 
KGYR - Goodyear Municip, Arizona, USA
Distance from station: SW 39mi, 63km
Updated: Wed, 30-Sep-2020 12:47pm MST
Clear
Clear
 Wind from E
Wind: E 7 mph , 11 km/h
Temperature: 100°F , 38°C
Dew Point: 37°F , 3°C
Humidity: 11%
Barometer: 29.95 inHg , 1014.2 hPa
Clouds: Clear
Visibility: 10 miles , 16 km
2020/09/30 19:47 KGYR 301947Z 08006KT 10SM SKC 38/03 A2995
KIWA - Chandler/Mesa, Arizona, USA
Distance from station: SSE 39mi, 63km
Updated: Wed, 30-Sep-2020 1:47pm MST
Clear
Clear
 Wind from WNW
Wind: WNW 6 mph , 9 km/h
Temperature: 99°F , 37°C
Dew Point: 34°F , 1°C
Humidity: 10%
Barometer: 29.95 inHg , 1014.2 hPa
Clouds: Clear
Visibility: 10 miles , 16 km
2020/09/30 20:47 KIWA 302047Z 29005KT 10SM SKC 37/01 A2995
KPAN - Payson, Arizona, USA
Distance from station: NE 44mi, 70km
Updated: Wed, 30-Sep-2020 1:35pm MST
Clear
Clear
 Wind from WSW
Wind: WSW 8 mph , 13 km/h, Gust: 15 mph , 24 km/h
Temperature: 86°F , 30°C
Dew Point: 21°F , -6°C
Humidity: 9%
Barometer: 30.23 inHg , 1023.7 hPa
Clouds: Clear
Visibility: 10 miles , 16 km
2020/09/30 20:35 KPAN 302035Z AUTO 24007G13KT 210V270 10SM CLR 30/M06 A3023 RMK AO2